createdAt,value
2018-12-23T00:02:26.431Z,7.58
2018-12-23T00:04:54.872Z,7.57
2018-12-23T00:07:23.275Z,7.55
2018-12-23T00:09:51.713Z,7.55
2018-12-23T00:12:20.125Z,7.56
2018-12-23T00:14:48.596Z,7.56
2018-12-23T00:17:17.000Z,7.61
2018-12-23T00:19:45.435Z,7.59
2018-12-23T00:22:13.832Z,7.62
2018-12-23T00:24:42.272Z,7.60
2018-12-23T00:27:10.682Z,7.64
2018-12-23T00:29:39.133Z,7.69
2018-12-23T00:32:07.540Z,7.67
2018-12-23T00:34:35.979Z,7.69
2018-12-23T00:37:04.517Z,7.68
2018-12-23T00:39:32.955Z,7.71
2018-12-23T00:42:01.369Z,7.71
2018-12-23T00:44:29.832Z,7.70
2018-12-23T00:46:58.232Z,7.65
2018-12-23T00:49:26.708Z,7.60
2018-12-23T00:51:55.119Z,7.57
2018-12-23T00:54:23.944Z,7.55
2018-12-23T00:56:52.359Z,7.50
2018-12-23T00:59:20.791Z,7.52
2018-12-23T01:01:49.196Z,7.52
2018-12-23T01:04:17.625Z,7.52
2018-12-23T01:06:46.163Z,7.51
2018-12-23T01:09:14.587Z,7.47
2018-12-23T01:11:42.995Z,7.56
2018-12-23T01:14:11.444Z,7.54
2018-12-23T01:16:39.867Z,7.55
2018-12-23T01:19:08.312Z,7.52
2018-12-23T01:21:36.718Z,7.50
2018-12-23T01:24:05.161Z,7.55
2018-12-23T01:26:33.564Z,7.54
2018-12-23T01:29:02.004Z,7.53
2018-12-23T01:31:30.382Z,7.58
2018-12-23T01:33:58.779Z,7.62
2018-12-23T01:36:27.311Z,7.57
2018-12-23T01:38:55.725Z,7.48
2018-12-23T01:41:24.166Z,7.48
2018-12-23T01:43:52.568Z,7.52
2018-12-23T01:46:20.999Z,7.50
2018-12-23T01:48:49.414Z,7.57
2018-12-23T01:51:17.859Z,7.52
2018-12-23T01:53:46.363Z,7.58
2018-12-23T01:56:14.818Z,7.56
2018-12-23T01:58:43.231Z,7.57
2018-12-23T02:01:11.680Z,7.60
2018-12-23T02:03:40.087Z,7.61
2018-12-23T02:06:08.514Z,7.52
2018-12-23T02:08:36.914Z,7.53
2018-12-23T02:11:05.471Z,7.53
2018-12-23T02:13:33.884Z,7.51
2018-12-23T02:16:02.500Z,7.55
2018-12-23T02:18:31.009Z,7.51
2018-12-23T02:20:59.443Z,7.55
2018-12-23T02:23:27.864Z,7.55
2018-12-23T02:25:56.287Z,7.45
2018-12-23T02:28:24.687Z,7.53
2018-12-23T02:30:53.396Z,7.55
2018-12-23T02:33:21.904Z,7.57
2018-12-23T02:35:55.501Z,7.68
2018-12-23T02:38:20.843Z,7.66
2018-12-23T02:40:49.362Z,7.60
2018-12-23T02:43:17.789Z,7.62
2018-12-23T02:45:46.358Z,7.66
2018-12-23T02:48:14.773Z,7.61
2018-12-23T02:50:43.194Z,7.60
2018-12-23T02:53:11.603Z,7.53
2018-12-23T02:55:40.042Z,7.32
2018-12-23T02:58:08.441Z,7.26
2018-12-23T03:00:36.902Z,7.20
2018-12-23T03:03:05.425Z,7.14
2018-12-23T03:05:33.867Z,7.18
2018-12-23T03:08:02.284Z,7.12
2018-12-23T03:10:30.723Z,7.10
2018-12-23T03:12:59.175Z,6.99
2018-12-23T03:15:27.648Z,6.95
2018-12-23T03:17:56.044Z,6.92
2018-12-23T03:20:24.470Z,6.89
2018-12-23T03:22:53.000Z,6.90
2018-12-23T03:25:21.448Z,6.85
2018-12-23T03:27:49.847Z,6.88
2018-12-23T03:30:18.268Z,6.84
2018-12-23T03:32:46.703Z,6.83
2018-12-23T03:35:15.270Z,6.82
2018-12-23T03:37:43.674Z,6.81
2018-12-23T03:40:12.107Z,6.82
2018-12-23T03:42:40.517Z,6.79
2018-12-23T03:45:09.085Z,6.82
2018-12-23T03:47:37.485Z,6.95
2018-12-23T03:50:06.668Z,6.92
2018-12-23T03:52:35.103Z,6.94
2018-12-23T03:55:03.655Z,7.00
2018-12-23T03:57:32.108Z,7.01
2018-12-23T04:00:00.671Z,6.99
2018-12-23T04:02:29.271Z,7.00
2018-12-23T04:04:57.826Z,7.08
2018-12-23T04:07:26.247Z,7.09
2018-12-23T04:09:54.687Z,7.13
2018-12-23T04:12:23.091Z,7.24
2018-12-23T04:14:51.529Z,7.33
2018-12-23T04:17:20.081Z,7.33
2018-12-23T04:19:48.495Z,7.36
2018-12-23T04:22:16.968Z,7.42
2018-12-23T04:24:45.439Z,7.44
2018-12-23T04:27:13.870Z,7.43
2018-12-23T04:29:42.280Z,7.46
2018-12-23T04:32:10.727Z,7.39
2018-12-23T04:37:32.477Z,7.22
2018-12-23T04:40:00.900Z,7.19
2018-12-23T04:42:29.274Z,7.27
2018-12-23T04:44:57.664Z,7.10
2018-12-23T04:47:26.179Z,7.02
2018-12-23T04:49:54.585Z,6.95
2018-12-23T04:52:22.996Z,6.92
2018-12-23T04:54:51.395Z,6.96
2018-12-23T04:57:19.835Z,7.01
2018-12-23T04:59:48.225Z,7.00
2018-12-23T05:02:16.645Z,6.99
2018-12-23T05:04:45.044Z,7.04
2018-12-23T05:07:13.475Z,7.06
2018-12-23T05:09:41.876Z,7.08
2018-12-23T05:12:10.292Z,7.10
2018-12-23T05:14:38.696Z,7.06
2018-12-23T05:17:07.131Z,6.98
2018-12-23T05:19:35.540Z,6.96
2018-12-23T05:22:04.086Z,6.93
2018-12-23T05:24:32.465Z,6.84
2018-12-23T05:27:00.892Z,6.81
2018-12-23T05:29:29.395Z,6.82
2018-12-23T05:31:57.824Z,6.80
2018-12-23T05:34:26.208Z,6.79
2018-12-23T05:36:54.640Z,6.78
2018-12-23T05:39:23.042Z,6.71
2018-12-23T05:41:51.481Z,6.55
2018-12-23T05:44:19.882Z,6.53
2018-12-23T05:46:48.307Z,6.53
2018-12-23T05:49:16.700Z,6.53
2018-12-23T05:51:45.113Z,6.66
2018-12-23T05:54:13.509Z,6.70
2018-12-23T05:56:41.937Z,6.65
2018-12-23T05:59:10.347Z,6.62
2018-12-23T06:01:38.779Z,6.53
2018-12-23T06:04:07.177Z,6.47
2018-12-23T06:06:35.595Z,6.41
2018-12-23T06:09:05.524Z,6.48
2018-12-23T06:11:34.115Z,6.55
2018-12-23T06:14:02.503Z,6.61
2018-12-23T06:16:31.574Z,6.68
2018-12-23T06:19:00.387Z,6.70
2018-12-23T06:21:28.831Z,6.67
2018-12-23T06:23:57.261Z,6.69
2018-12-23T06:26:25.724Z,6.68
2018-12-23T06:28:54.130Z,6.74
2018-12-23T06:31:22.574Z,6.74
2018-12-23T06:33:50.997Z,6.77
2018-12-23T06:36:19.431Z,6.70
2018-12-23T06:38:47.903Z,6.67
2018-12-23T06:41:16.327Z,6.64
2018-12-23T06:43:44.846Z,6.55
2018-12-23T06:46:13.447Z,6.50
2018-12-23T06:48:41.828Z,6.47
2018-12-23T06:51:10.261Z,6.46
2018-12-23T06:53:38.666Z,6.44
2018-12-23T06:56:07.133Z,6.47
2018-12-23T06:58:35.531Z,6.54
2018-12-23T07:01:03.999Z,6.53
2018-12-23T07:03:32.402Z,6.60
2018-12-23T07:06:00.808Z,6.64
2018-12-23T07:08:29.251Z,6.73
2018-12-23T07:10:57.783Z,6.77
2018-12-23T07:13:26.475Z,6.84
2018-12-23T07:15:54.935Z,6.88
2018-12-23T07:18:23.334Z,6.98
2018-12-23T07:20:51.841Z,7.01
2018-12-23T07:23:20.258Z,7.12
2018-12-23T07:25:48.651Z,7.18
2018-12-23T07:28:17.072Z,7.16
2018-12-23T07:30:45.472Z,7.20
2018-12-23T07:33:13.913Z,7.25
2018-12-23T07:35:42.353Z,7.31
2018-12-23T07:38:10.755Z,7.35
2018-12-23T07:40:39.157Z,7.39
2018-12-23T07:43:07.608Z,7.44
2018-12-23T07:45:36.007Z,7.42
2018-12-23T07:48:04.445Z,7.33
2018-12-23T07:50:32.852Z,7.36
2018-12-23T07:53:01.282Z,7.27
2018-12-23T07:55:29.679Z,7.22
2018-12-23T07:57:58.123Z,7.19
2018-12-23T08:00:26.511Z,7.17
2018-12-23T08:02:54.936Z,7.18
2018-12-23T08:05:23.352Z,7.16
2018-12-23T08:07:51.780Z,7.12
2018-12-23T08:10:20.199Z,7.12
2018-12-23T08:12:48.644Z,7.12
2018-12-23T08:15:17.059Z,7.14
2018-12-23T08:17:45.481Z,7.16
2018-12-23T08:20:13.875Z,7.21
2018-12-23T08:22:42.307Z,7.25
2018-12-23T08:25:10.726Z,7.26
2018-12-23T08:27:39.172Z,7.25
2018-12-23T08:30:07.595Z,7.24
2018-12-23T08:32:36.019Z,7.30
2018-12-23T08:35:04.592Z,7.30
2018-12-23T08:37:33.662Z,7.33
2018-12-23T08:40:02.067Z,7.29
2018-12-23T08:42:30.503Z,7.36
2018-12-23T08:44:58.899Z,7.43
2018-12-23T08:47:27.343Z,7.52
2018-12-23T08:49:55.803Z,7.66
2018-12-23T08:52:24.326Z,7.69
2018-12-23T08:54:52.783Z,7.74
2018-12-23T08:57:21.212Z,7.79
2018-12-23T08:59:49.644Z,7.83
2018-12-23T09:02:18.084Z,7.89
2018-12-23T09:04:46.517Z,7.99
2018-12-23T09:07:14.993Z,8.03
2018-12-23T09:09:43.408Z,8.07
2018-12-23T09:12:22.528Z,8.03
2018-12-23T09:14:51.051Z,8.06
2018-12-23T09:17:19.516Z,8.02
2018-12-23T09:19:48.473Z,7.95
2018-12-23T09:22:17.048Z,7.84
2018-12-23T09:24:45.517Z,7.83
2018-12-23T09:27:13.947Z,7.82
2018-12-23T09:29:42.348Z,7.70
2018-12-23T09:32:10.851Z,7.62
2018-12-23T09:34:39.264Z,7.67
2018-12-23T09:37:07.720Z,7.63
2018-12-23T09:39:36.259Z,7.69
2018-12-23T09:42:04.774Z,7.69
2018-12-23T09:44:33.211Z,7.64
2018-12-23T09:47:01.651Z,7.62
2018-12-23T09:49:30.060Z,7.63
2018-12-23T09:51:58.720Z,7.62
2018-12-23T09:54:27.189Z,7.63
2018-12-23T09:56:55.639Z,7.57
2018-12-23T09:59:24.043Z,7.57
2018-12-23T10:01:52.658Z,7.50
2018-12-23T10:04:21.095Z,7.52
2018-12-23T10:06:49.505Z,7.58
2018-12-23T10:09:17.966Z,7.52
2018-12-23T10:11:46.358Z,7.51
2018-12-23T10:14:14.780Z,7.51
2018-12-23T10:16:43.223Z,7.50
2018-12-23T10:19:11.663Z,7.56
2018-12-23T10:21:40.356Z,7.55
2018-12-23T10:29:54.627Z,7.45
2018-12-23T10:32:23.092Z,7.54
2018-12-23T10:34:51.647Z,7.53
2018-12-23T10:40:13.364Z,7.50
2018-12-23T10:51:19.672Z,7.71
2018-12-23T10:53:49.893Z,7.76
2018-12-23T10:59:14.231Z,7.85
2018-12-23T11:01:42.692Z,7.98
2018-12-23T11:04:11.209Z,8.12
2018-12-23T11:09:32.836Z,8.31
2018-12-23T11:12:01.331Z,8.49
2018-12-23T11:14:29.875Z,8.63
2018-12-23T11:16:58.358Z,8.78
2018-12-23T11:19:28.118Z,8.95
2018-12-23T11:21:56.558Z,9.06
2018-12-23T11:24:25.033Z,9.12
2018-12-23T11:26:53.927Z,9.19
2018-12-23T11:29:22.459Z,9.26
2018-12-23T11:31:50.916Z,9.30
2018-12-23T11:34:19.375Z,9.32
2018-12-23T11:36:47.813Z,9.33
2018-12-23T12:05:13.720Z,8.98
2018-12-23T12:10:35.366Z,8.99
2018-12-23T12:15:56.344Z,8.93
2018-12-23T12:18:24.808Z,8.85
2018-12-23T12:23:46.296Z,8.62
2018-12-23T12:26:14.788Z,8.57
2018-12-23T12:28:43.288Z,8.59
2018-12-23T12:31:30.337Z,8.61
2018-12-23T12:33:58.855Z,8.58
2018-12-23T12:36:27.300Z,8.68
2018-12-23T12:38:55.791Z,8.71
2018-12-23T12:44:18.034Z,8.50
2018-12-23T12:46:47.210Z,8.51
2018-12-23T12:49:16.290Z,8.55
2018-12-23T12:51:44.984Z,8.48
2018-12-23T12:54:14.162Z,8.40
2018-12-23T12:56:42.824Z,8.36
2018-12-23T12:59:11.345Z,8.33
2018-12-23T13:01:39.882Z,8.29
2018-12-23T13:04:08.615Z,8.36
2018-12-23T13:06:37.123Z,8.40
2018-12-23T13:09:09.251Z,8.45
2018-12-23T13:11:38.467Z,8.38
2018-12-23T13:14:07.042Z,8.39
2018-12-23T13:19:28.173Z,8.24
2018-12-23T13:24:49.292Z,8.18
2018-12-23T13:27:17.795Z,8.21
2018-12-23T13:29:46.255Z,8.24
2018-12-23T13:32:21.004Z,8.13
2018-12-23T13:47:20.982Z,8.12
2018-12-23T13:50:05.278Z,8.07
2018-12-23T13:52:41.852Z,8.08
2018-12-23T13:55:21.219Z,8.05
2018-12-23T13:58:03.714Z,8.11
2018-12-23T14:00:44.326Z,8.19
2018-12-23T14:03:22.171Z,8.23
2018-12-23T14:06:07.511Z,8.30
2018-12-23T14:08:45.265Z,8.29
2018-12-23T14:14:06.580Z,8.24
2018-12-23T14:16:35.059Z,8.25
2018-12-23T14:19:03.488Z,8.24
2018-12-23T14:21:31.956Z,8.31
2018-12-23T14:24:00.396Z,8.40
2018-12-23T14:29:21.830Z,8.47
2018-12-23T14:31:50.282Z,8.45
2018-12-23T14:34:18.708Z,8.46
2018-12-23T14:36:47.170Z,8.36
2018-12-23T14:39:15.608Z,8.27
2018-12-23T14:41:44.064Z,8.28
2018-12-23T14:49:57.423Z,8.09
2018-12-23T14:52:25.918Z,8.07
2018-12-23T14:55:00.761Z,8.10
2018-12-23T15:00:21.748Z,7.94
2018-12-23T15:02:51.124Z,7.86
2018-12-23T15:08:13.715Z,7.78
2018-12-23T15:10:42.313Z,7.84
2018-12-23T15:13:14.760Z,7.78
2018-12-23T15:15:43.423Z,7.77
2018-12-23T15:18:11.962Z,7.74
2018-12-23T15:20:40.428Z,7.77
2018-12-23T15:23:10.815Z,7.79
2018-12-23T15:28:32.569Z,7.78
2018-12-23T15:31:01.248Z,7.75
2018-12-23T15:39:14.466Z,7.65
2018-12-23T15:41:42.959Z,7.63
2018-12-23T15:44:11.433Z,7.59
2018-12-23T15:49:32.996Z,7.54
2018-12-23T15:52:01.464Z,7.53
2018-12-23T15:54:29.883Z,7.50
2018-12-23T15:56:58.331Z,7.57
2018-12-23T15:59:26.782Z,7.51
2018-12-23T16:01:55.257Z,7.45
2018-12-23T16:04:23.700Z,7.46
2018-12-23T16:09:56.516Z,7.41
2018-12-23T16:18:52.755Z,7.37
2018-12-23T16:24:13.810Z,7.24
2018-12-23T16:26:42.243Z,7.15
2018-12-23T16:29:10.700Z,7.13
2018-12-23T16:31:39.315Z,7.12
2018-12-23T16:34:07.760Z,7.11
2018-12-23T16:36:36.179Z,7.16
2018-12-23T16:39:07.093Z,7.11
2018-12-23T16:41:35.617Z,7.05
2018-12-23T16:44:04.096Z,7.01
2018-12-23T16:46:32.514Z,7.00
2018-12-23T16:49:00.972Z,6.96
2018-12-23T16:51:29.405Z,6.93
2018-12-23T16:53:57.859Z,6.93
2018-12-23T16:56:26.296Z,6.87
2018-12-23T16:58:54.759Z,6.87
2018-12-23T17:01:23.225Z,6.87
2018-12-23T17:03:51.759Z,6.87
2018-12-23T17:06:20.213Z,6.89
2018-12-23T17:08:48.659Z,6.85
2018-12-23T17:11:17.166Z,6.80
2018-12-23T17:13:45.823Z,6.77
2018-12-23T17:16:14.296Z,6.73
2018-12-23T17:18:42.767Z,6.75
2018-12-23T17:21:13.996Z,6.74
2018-12-23T17:26:34.630Z,6.73
2018-12-23T17:29:03.092Z,6.74
2018-12-23T17:31:31.516Z,6.73
2018-12-23T17:33:59.972Z,6.73
2018-12-23T17:36:28.436Z,6.74
2018-12-23T17:38:56.902Z,6.83
2018-12-23T17:41:25.359Z,6.86
2018-12-23T17:43:53.813Z,6.89
2018-12-23T17:46:22.288Z,6.89
2018-12-23T17:48:50.806Z,6.88
2018-12-23T17:51:19.227Z,6.89
2018-12-23T17:53:47.708Z,6.87
2018-12-23T17:56:16.139Z,6.80
2018-12-23T17:58:44.563Z,6.80
2018-12-23T18:01:13.137Z,6.78
2018-12-23T18:03:41.576Z,6.77
2018-12-23T18:06:10.016Z,6.81
2018-12-23T18:08:39.002Z,6.80
2018-12-23T18:11:07.456Z,6.79
2018-12-23T18:13:35.902Z,6.73
2018-12-23T18:16:04.505Z,6.65
2018-12-23T18:18:33.024Z,6.56
2018-12-23T18:21:01.484Z,6.50
2018-12-23T18:23:29.912Z,6.51
2018-12-23T18:25:58.364Z,6.56
2018-12-23T18:28:26.811Z,6.52
2018-12-23T18:30:55.262Z,6.43
2018-12-23T18:33:23.695Z,6.43
2018-12-23T18:35:52.147Z,6.40
2018-12-23T18:38:20.571Z,6.41
2018-12-23T18:40:49.097Z,6.37
2018-12-23T18:43:17.680Z,6.40
2018-12-23T18:45:46.159Z,6.40
2018-12-23T18:48:14.588Z,6.40
2018-12-23T18:50:43.067Z,6.41
2018-12-23T18:53:11.924Z,6.35
2018-12-23T18:55:40.500Z,6.36
2018-12-23T18:58:09.016Z,6.39
2018-12-23T19:00:37.658Z,6.40
2018-12-23T19:03:06.136Z,6.38
2018-12-23T19:05:34.635Z,6.41
2018-12-23T19:11:26.748Z,6.46
2018-12-23T19:14:06.872Z,6.48
2018-12-23T19:16:43.719Z,6.44
2018-12-23T19:21:29.066Z,6.44
2018-12-23T19:24:13.541Z,6.40
2018-12-23T19:27:07.804Z,6.47
2018-12-23T19:31:55.084Z,6.45
2018-12-23T19:35:08.513Z,6.25
2018-12-23T19:37:46.938Z,6.26
2018-12-23T19:41:43.099Z,6.31
2018-12-23T19:46:27.268Z,6.37
2018-12-23T19:53:08.742Z,6.56
2018-12-23T19:55:54.848Z,6.50
2018-12-23T20:00:42.170Z,6.43
2018-12-23T20:03:38.615Z,6.42
2018-12-23T20:06:19.277Z,6.37
2018-12-23T20:11:31.036Z,6.39
2018-12-23T20:16:16.864Z,6.47
2018-12-23T20:19:02.172Z,6.41
2018-12-23T20:24:38.160Z,6.43
2018-12-23T20:27:40.014Z,6.42
2018-12-23T20:30:21.246Z,6.45
2018-12-23T20:34:13.088Z,6.43
2018-12-23T20:39:12.230Z,6.40
2018-12-23T20:47:47.873Z,6.32
2018-12-23T20:50:58.320Z,6.34
2018-12-23T20:53:38.288Z,6.33
2018-12-23T20:56:20.652Z,6.37
2018-12-23T20:59:14.952Z,6.35
2018-12-23T21:02:57.297Z,6.36
2018-12-23T21:05:40.361Z,6.32
2018-12-23T21:08:33.477Z,6.30
2018-12-23T21:13:18.101Z,6.29
2018-12-23T21:15:58.584Z,6.27
2018-12-23T21:18:39.706Z,6.29
2018-12-23T21:22:21.731Z,6.30
2018-12-23T21:27:03.244Z,6.31
2018-12-23T21:29:58.328Z,6.32
2018-12-23T21:37:37.465Z,6.37
2018-12-23T21:40:17.871Z,6.35
2018-12-23T21:43:02.132Z,6.36
2018-12-23T21:45:42.280Z,6.31
2018-12-23T21:48:24.596Z,6.35
2018-12-23T21:53:06.299Z,6.40
2018-12-23T21:56:50.449Z,6.41
2018-12-23T22:02:23.071Z,6.52
2018-12-23T22:09:09.665Z,6.53
2018-12-23T22:12:59.876Z,6.62
2018-12-23T22:15:28.379Z,6.63
2018-12-23T22:17:56.799Z,6.69
2018-12-23T22:20:25.309Z,6.74
2018-12-23T22:22:53.727Z,6.77
2018-12-23T22:25:22.159Z,6.71
2018-12-23T22:27:50.628Z,6.72
2018-12-23T22:30:19.060Z,6.71
2018-12-23T22:32:47.519Z,6.61
2018-12-23T22:35:15.944Z,6.62
2018-12-23T22:37:44.455Z,6.68
2018-12-23T22:40:12.899Z,6.74
2018-12-23T22:42:41.394Z,6.77
2018-12-23T22:45:09.820Z,6.83
2018-12-23T22:47:38.275Z,6.87
2018-12-23T22:50:06.743Z,6.83
2018-12-23T22:52:35.247Z,6.84
2018-12-23T22:55:03.697Z,6.92
2018-12-23T22:57:32.144Z,6.92
2018-12-23T23:00:00.587Z,6.90
2018-12-23T23:02:29.290Z,6.91
2018-12-23T23:04:57.723Z,6.94
2018-12-23T23:07:26.255Z,6.98
2018-12-23T23:09:54.685Z,6.92
2018-12-23T23:12:23.156Z,6.81
2018-12-23T23:14:51.579Z,6.71
2018-12-23T23:17:20.052Z,6.72
2018-12-23T23:19:48.520Z,6.66
2018-12-23T23:22:17.107Z,6.70
2018-12-23T23:24:45.539Z,6.77
2018-12-23T23:28:39.590Z,6.75
2018-12-23T23:31:08.168Z,6.72
2018-12-23T23:33:36.640Z,6.77
2018-12-23T23:36:05.097Z,6.82
2018-12-23T23:38:33.613Z,6.82
2018-12-23T23:41:02.326Z,6.93
2018-12-23T23:43:30.792Z,7.20
2018-12-23T23:45:59.262Z,7.63
2018-12-23T23:51:20.817Z,8.45
2018-12-23T23:53:49.285Z,9.07
2018-12-23T23:56:17.710Z,9.37
